Time;durP1;ratioP1;P1;durP2;ratioP2;P2;SDS_P1;SDS_P2;PMS_P1;PMS_P2;Temp;Humidity;BMP_temperature;BMP_pressure;BME280_temperature;BME280_humidity;BME280_pressure;Samples;Min_cycle;Max_cycle;Signal;HPM_P1;HPM_P2
2022/09/27 00:02:54;;;;;;;7.40;5.93;;;;;;;;;;6291357;28;20056;-60
2022/09/27 00:06:04;;;;;;;7.13;5.50;;;;;;;;;;6294808;28;20117;-60
2022/09/27 00:09:06;;;;;;;7.20;5.75;;;;;;;;;;6277449;28;20064;-60
2022/09/27 00:12:09;;;;;;;6.22;5.63;;;;;;;;;;6295147;28;20325;-60
2022/09/27 00:15:11;;;;;;;8.73;6.23;;;;;;;;;;6294908;28;20040;-60
2022/09/27 00:18:15;;;;;;;9.98;6.15;;;;;;;;;;6296854;28;20052;-61
2022/09/27 00:21:17;;;;;;;8.68;6.07;;;;;;;;;;6295156;28;20119;-60
2022/09/27 00:24:20;;;;;;;10.02;6.82;;;;;;;;;;6294869;28;20093;-60
2022/09/27 00:27:22;;;;;;;7.72;6.35;;;;;;;;;;6296641;28;20110;-61
2022/09/27 00:30:24;;;;;;;10.05;7.30;;;;;;;;;;6293846;28;20048;-62
2022/09/27 00:33:27;;;;;;;7.68;6.88;;;;;;;;;;6295696;28;20279;-63
2022/09/27 00:36:29;;;;;;;9.00;6.90;;;;;;;;;;6299462;28;20098;-65
2022/09/27 00:39:31;;;;;;;9.00;7.00;;;;;;;;;;6292653;28;20103;-63
2022/09/27 00:42:33;;;;;;;9.70;7.68;;;;;;;;;;6293906;28;20056;-63
2022/09/27 00:45:34;;;;;;;8.07;7.28;;;;;;;;;;6295131;28;20477;-63
2022/09/27 00:48:37;;;;;;;9.40;7.70;;;;;;;;;;6292712;28;20053;-60
2022/09/27 00:51:39;;;;;;;9.02;7.70;;;;;;;;;;6294245;28;20045;-63
2022/09/27 00:54:43;;;;;;;9.77;7.50;;;;;;;;;;6299696;28;20041;-62
2022/09/27 00:57:45;;;;;;;8.10;6.97;;;;;;;;;;6299775;28;20045;-63
2022/09/27 01:00:48;;;;;;;7.97;7.18;;;;;;;;;;6300114;28;20049;-61
2022/09/27 01:03:56;;;;;;;8.15;6.80;;;;;;;;;;6297206;28;20084;-60
2022/09/27 01:06:58;;;;;;;8.52;6.32;;;;;;;;;;6299963;28;20052;-62
2022/09/27 01:10:00;;;;;;;8.18;7.10;;;;;;;;;;6298149;28;20059;-59
2022/09/27 01:13:07;;;;;;;7.10;6.35;;;;;;;;;;6283662;28;20049;-60
2022/09/27 01:16:16;;;;;;;7.07;5.57;;;;;;;;;;6298719;28;20089;-62
2022/09/27 01:19:38;;;;;;;5.72;5.18;;;;;;;;;;6301230;28;20062;-63
2022/09/27 01:22:42;;;;;;;6.32;5.68;;;;;;;;;;6302073;28;20273;-61
2022/09/27 01:25:57;;;;;;;5.88;5.28;;;;;;;;;;6297495;28;20090;-61
2022/09/27 01:29:04;;;;;;;9.05;6.50;;;;;;;;;;6299332;28;20056;-61
2022/09/27 01:32:11;;;;;;;6.40;5.65;;;;;;;;;;6296813;28;20176;-61
2022/09/27 01:35:17;;;;;;;6.63;5.75;;;;;;;;;;6299843;28;20086;-62
2022/09/27 01:38:25;;;;;;;6.20;5.55;;;;;;;;;;6296948;28;20060;-65
2022/09/27 01:41:32;;;;;;;7.00;5.78;;;;;;;;;;6299982;28;20053;-66
2022/09/27 01:44:37;;;;;;;7.63;6.15;;;;;;;;;;6298139;28;20045;-65
2022/09/27 01:47:43;;;;;;;7.45;6.40;;;;;;;;;;6294613;28;20053;-63
2022/09/27 01:50:48;;;;;;;9.15;6.82;;;;;;;;;;6294257;28;20206;-64
2022/09/27 01:53:52;;;;;;;10.93;8.02;;;;;;;;;;6277554;28;20063;-63
2022/09/27 01:56:56;;;;;;;11.35;7.75;;;;;;;;;;6281096;28;20443;-63
2022/09/27 02:00:01;;;;;;;8.43;7.20;;;;;;;;;;6297184;28;20053;-64
2022/09/27 02:03:07;;;;;;;12.00;7.45;;;;;;;;;;6275788;28;20096;-64
2022/09/27 02:06:13;;;;;;;10.70;7.32;;;;;;;;;;6294144;28;20102;-63
2022/09/27 02:09:18;;;;;;;10.23;8.15;;;;;;;;;;6297199;28;20235;-63
2022/09/27 02:12:22;;;;;;;8.60;7.70;;;;;;;;;;6296710;28;21731;-63
2022/09/27 02:15:25;;;;;;;9.80;7.35;;;;;;;;;;6294151;28;20060;-63
2022/09/27 02:18:33;;;;;;;10.45;7.85;;;;;;;;;;6297543;28;20059;-63
2022/09/27 02:21:40;;;;;;;9.98;8.32;;;;;;;;;;6299776;28;20457;-63
2022/09/27 02:24:46;;;;;;;10.00;8.68;;;;;;;;;;6296738;28;20386;-63
2022/09/27 02:27:54;;;;;;;10.65;8.48;;;;;;;;;;6294918;28;20262;-63
2022/09/27 02:30:56;;;;;;;9.93;8.32;;;;;;;;;;6298814;28;20052;-63
2022/09/27 02:34:02;;;;;;;10.68;8.13;;;;;;;;;;6297047;28;20056;-63
2022/09/27 02:37:03;;;;;;;9.63;8.30;;;;;;;;;;6289801;28;20987;-63
2022/09/27 02:40:06;;;;;;;11.75;8.95;;;;;;;;;;6296292;28;20252;-63
2022/09/27 02:43:08;;;;;;;10.50;8.85;;;;;;;;;;6296112;28;20107;-61
2022/09/27 02:46:21;;;;;;;11.25;9.10;;;;;;;;;;6298052;28;20060;-61
2022/09/27 02:49:47;;;;;;;10.95;9.15;;;;;;;;;;6295647;28;20044;-63
2022/09/27 02:52:55;;;;;;;13.32;10.35;;;;;;;;;;6296896;28;20048;-63
2022/09/27 02:56:01;;;;;;;11.93;9.73;;;;;;;;;;6295666;28;20056;-63
2022/09/27 02:59:07;;;;;;;13.13;9.80;;;;;;;;;;6293762;28;20044;-63
2022/09/27 03:02:12;;;;;;;14.45;11.10;;;;;;;;;;6295057;28;20067;-63
2022/09/27 03:05:18;;;;;;;13.65;11.15;;;;;;;;;;6297364;28;20086;-64
2022/09/27 03:08:20;;;;;;;14.70;10.57;;;;;;;;;;6294098;28;20056;-63
2022/09/27 03:11:22;;;;;;;13.73;11.55;;;;;;;;;;6298304;28;20063;-63
2022/09/27 03:14:23;;;;;;;14.25;11.35;;;;;;;;;;6295322;28;20083;-63
2022/09/27 03:17:25;;;;;;;13.88;11.20;;;;;;;;;;6296793;28;20068;-63
2022/09/27 03:20:28;;;;;;;14.68;11.48;;;;;;;;;;6301607;28;20048;-63
2022/09/27 03:23:31;;;;;;;14.18;11.20;;;;;;;;;;6294660;28;20076;-60
2022/09/27 03:26:32;;;;;;;15.02;11.85;;;;;;;;;;6294945;28;20044;-61
2022/09/27 03:29:34;;;;;;;16.15;11.30;;;;;;;;;;6295929;28;20094;-61
2022/09/27 03:32:36;;;;;;;14.05;12.07;;;;;;;;;;6294279;28;20040;-60
2022/09/27 03:35:40;;;;;;;13.48;12.02;;;;;;;;;;6294850;28;20278;-63
2022/09/27 03:38:42;;;;;;;14.38;12.02;;;;;;;;;;6295714;28;20135;-63
2022/09/27 03:41:43;;;;;;;16.05;11.90;;;;;;;;;;6297245;28;20048;-64
2022/09/27 03:44:45;;;;;;;14.30;12.43;;;;;;;;;;6296197;28;20056;-63
2022/09/27 03:47:47;;;;;;;15.32;12.05;;;;;;;;;;6299598;28;20052;-63
2022/09/27 03:50:51;;;;;;;15.50;11.88;;;;;;;;;;6296139;28;20067;-63
2022/09/27 03:53:52;;;;;;;14.85;11.27;;;;;;;;;;6294471;28;20094;-61
2022/09/27 03:56:54;;;;;;;13.65;11.65;;;;;;;;;;6294395;28;20052;-60
2022/09/27 03:59:57;;;;;;;13.55;11.00;;;;;;;;;;6294642;28;20134;-61
2022/09/27 04:02:59;;;;;;;15.63;12.52;;;;;;;;;;6296539;28;20274;-61
2022/09/27 04:06:02;;;;;;;16.13;12.27;;;;;;;;;;6294839;28;20068;-61
2022/09/27 04:09:03;;;;;;;14.38;11.55;;;;;;;;;;6297650;28;20332;-63
2022/09/27 04:12:05;;;;;;;14.35;11.93;;;;;;;;;;6296767;28;20048;-63
2022/09/27 04:15:08;;;;;;;16.27;12.18;;;;;;;;;;6295607;28;20049;-63
2022/09/27 04:18:09;;;;;;;16.77;12.57;;;;;;;;;;6295279;28;20057;-63
2022/09/27 04:21:12;;;;;;;17.20;12.75;;;;;;;;;;6295358;28;20093;-63
2022/09/27 04:24:14;;;;;;;15.80;12.83;;;;;;;;;;6293416;28;20098;-63
2022/09/27 04:27:16;;;;;;;17.40;13.38;;;;;;;;;;6295040;28;20113;-61
2022/09/27 04:30:17;;;;;;;15.40;13.32;;;;;;;;;;6298424;28;20045;-61
2022/09/27 04:33:19;;;;;;;17.52;12.98;;;;;;;;;;6299907;28;20063;-61
2022/09/27 04:36:28;;;;;;;17.65;13.43;;;;;;;;;;6300554;28;20268;-62
2022/09/27 04:39:30;;;;;;;15.98;13.00;;;;;;;;;;6297660;28;20193;-62
2022/09/27 04:42:33;;;;;;;18.38;13.73;;;;;;;;;;6300260;28;20052;-62
2022/09/27 04:45:34;;;;;;;17.27;14.10;;;;;;;;;;6300906;28;20044;-61
2022/09/27 04:48:37;;;;;;;18.73;13.63;;;;;;;;;;6296717;28;20048;-62
2022/09/27 04:51:39;;;;;;;17.77;14.48;;;;;;;;;;6301021;28;20061;-61
2022/09/27 04:54:41;;;;;;;20.67;14.60;;;;;;;;;;6301068;28;20052;-62
2022/09/27 04:57:43;;;;;;;17.42;14.52;;;;;;;;;;6297446;28;20056;-62
2022/09/27 05:00:45;;;;;;;18.65;14.98;;;;;;;;;;6299335;28;20255;-62
2022/09/27 05:03:47;;;;;;;16.60;14.02;;;;;;;;;;6298310;28;20052;-60
2022/09/27 05:06:50;;;;;;;16.77;13.90;;;;;;;;;;6298948;28;20041;-62
2022/09/27 05:09:52;;;;;;;18.40;15.20;;;;;;;;;;6297868;28;20212;-61
2022/09/27 05:12:54;;;;;;;19.52;14.90;;;;;;;;;;6297981;28;20132;-61
2022/09/27 05:15:55;;;;;;;18.45;15.38;;;;;;;;;;6297426;28;20060;-61
2022/09/27 05:18:57;;;;;;;20.38;16.45;;;;;;;;;;6297691;28;20354;-62
2022/09/27 05:22:00;;;;;;;18.45;14.95;;;;;;;;;;6297157;28;20286;-62
2022/09/27 05:25:02;;;;;;;17.57;15.07;;;;;;;;;;6297256;28;20052;-62
2022/09/27 05:28:05;;;;;;;21.83;17.85;;;;;;;;;;6297553;28;20526;-62
2022/09/27 05:31:06;;;;;;;21.88;17.80;;;;;;;;;;6299312;28;20053;-61
2022/09/27 05:34:11;;;;;;;21.75;17.08;;;;;;;;;;6298268;28;20225;-63
2022/09/27 05:37:14;;;;;;;22.55;17.52;;;;;;;;;;6298571;28;20053;-62
2022/09/27 05:40:16;;;;;;;19.33;16.83;;;;;;;;;;6292781;28;20105;-62
2022/09/27 05:43:18;;;;;;;25.65;18.40;;;;;;;;;;6298699;28;20059;-62
2022/09/27 05:46:20;;;;;;;21.70;17.63;;;;;;;;;;6299946;28;20914;-62
2022/09/27 05:49:22;;;;;;;23.63;18.58;;;;;;;;;;6297617;28;20056;-62
2022/09/27 05:52:25;;;;;;;20.75;16.42;;;;;;;;;;6296739;28;20197;-61
2022/09/27 05:55:28;;;;;;;21.42;17.58;;;;;;;;;;6296354;28;20059;-62
2022/09/27 05:58:30;;;;;;;21.88;16.85;;;;;;;;;;6296633;28;20280;-63
2022/09/27 06:01:31;;;;;;;19.98;17.30;;;;;;;;;;6298804;28;20316;-62
2022/09/27 06:04:33;;;;;;;25.85;16.38;;;;;;;;;;6295079;28;20067;-63
2022/09/27 06:07:38;;;;;;;24.63;16.67;;;;;;;;;;6299955;28;20045;-62
2022/09/27 06:10:40;;;;;;;20.50;16.50;;;;;;;;;;6294739;28;20235;-60
2022/09/27 06:13:42;;;;;;;19.73;16.45;;;;;;;;;;6296246;28;20051;-64
2022/09/27 06:16:44;;;;;;;25.02;16.92;;;;;;;;;;6298686;28;20049;-62
2022/09/27 06:19:46;;;;;;;19.65;16.30;;;;;;;;;;6297051;28;20109;-64
2022/09/27 06:22:49;;;;;;;17.77;13.02;;;;;;;;;;6299942;28;20979;-64
2022/09/27 06:25:52;;;;;;;21.13;14.23;;;;;;;;;;6298879;28;20278;-64
2022/09/27 06:28:53;;;;;;;15.45;12.43;;;;;;;;;;6295592;28;20849;-63
2022/09/27 06:31:55;;;;;;;15.05;12.95;;;;;;;;;;6295436;28;20056;-63
2022/09/27 06:34:57;;;;;;;16.30;12.85;;;;;;;;;;6299004;28;20044;-62
2022/09/27 06:38:03;;;;;;;15.80;12.52;;;;;;;;;;6299010;28;20154;-63
2022/09/27 06:41:07;;;;;;;15.65;12.43;;;;;;;;;;6297284;28;20090;-62
2022/09/27 06:44:10;;;;;;;15.52;13.13;;;;;;;;;;6295258;28;20087;-62
2022/09/27 06:47:11;;;;;;;13.77;11.85;;;;;;;;;;6298177;28;20095;-63
2022/09/27 06:50:13;;;;;;;15.20;12.07;;;;;;;;;;6296077;28;20048;-62
2022/09/27 06:53:17;;;;;;;13.27;11.48;;;;;;;;;;6295857;28;20048;-63
2022/09/27 06:56:18;;;;;;;;;;;;;;;;;;6294660;28;20099;-62
2022/09/27 07:02:39;;;;;;;15.55;12.85;;;;;;;;;;6294362;28;20048;-62
2022/09/27 07:05:41;;;;;;;15.80;13.07;;;;;;;;;;6296411;28;20075;-62
2022/09/27 07:08:44;;;;;;;14.50;12.43;;;;;;;;;;6298020;28;20718;-62
2022/09/27 07:11:46;;;;;;;17.08;13.00;;;;;;;;;;6297094;28;20236;-62
2022/09/27 07:14:48;;;;;;;17.52;12.57;;;;;;;;;;6294029;28;20048;-62
2022/09/27 07:17:56;;;;;;;17.55;13.90;;;;;;;;;;6295482;28;20067;-62
2022/09/27 07:20:59;;;;;;;15.20;13.05;;;;;;;;;;6293830;28;20048;-62
2022/09/27 07:24:03;;;;;;;17.20;14.20;;;;;;;;;;6294939;28;20290;-63
2022/09/27 07:27:05;;;;;;;25.98;14.10;;;;;;;;;;6294159;28;20052;-62
2022/09/27 07:30:07;;;;;;;15.82;12.70;;;;;;;;;;6293867;28;20074;-63
2022/09/27 07:33:09;;;;;;;14.63;12.93;;;;;;;;;;6296046;28;20152;-62
2022/09/27 07:36:12;;;;;;;13.73;12.25;;;;;;;;;;6295677;28;20056;-63
2022/09/27 07:39:15;;;;;;;14.68;12.65;;;;;;;;;;6298212;28;20079;-62
2022/09/27 07:42:17;;;;;;;15.18;12.25;;;;;;;;;;6297058;28;20098;-63
2022/09/27 07:45:19;;;;;;;13.38;11.98;;;;;;;;;;6296110;28;20060;-62
2022/09/27 07:48:20;;;;;;;17.63;12.82;;;;;;;;;;6294542;28;20056;-62
2022/09/27 07:51:22;;;;;;;16.35;13.70;;;;;;;;;;6295897;28;20052;-63
2022/09/27 07:54:25;;;;;;;15.57;13.55;;;;;;;;;;6295858;28;20087;-62
2022/09/27 07:57:26;;;;;;;14.27;12.70;;;;;;;;;;6293034;28;20066;-62
2022/09/27 08:00:28;;;;;;;16.20;12.65;;;;;;;;;;6293482;28;20052;-62
2022/09/27 08:03:30;;;;;;;13.45;12.05;;;;;;;;;;6298324;28;20056;-62
2022/09/27 08:06:32;;;;;;;13.27;11.80;;;;;;;;;;6300658;28;20394;-62
2022/09/27 08:09:35;;;;;;;14.07;12.57;;;;;;;;;;6299399;28;20045;-65
2022/09/27 08:12:37;;;;;;;14.52;12.93;;;;;;;;;;6300155;28;20059;-62
2022/09/27 08:15:38;;;;;;;13.80;12.50;;;;;;;;;;6298745;28;20049;-62
2022/09/27 08:18:40;;;;;;;13.60;11.20;;;;;;;;;;6300454;28;20328;-62
2022/09/27 08:21:42;;;;;;;13.35;10.25;;;;;;;;;;6296497;28;20113;-62
2022/09/27 08:24:45;;;;;;;13.05;10.30;;;;;;;;;;6300443;28;20048;-62
2022/09/27 08:27:55;;;;;;;12.05;10.82;;;;;;;;;;6296996;28;20095;-62
2022/09/27 08:30:58;;;;;;;11.85;10.10;;;;;;;;;;6298777;28;20120;-63
2022/09/27 08:33:59;;;;;;;17.60;10.57;;;;;;;;;;6298431;28;20075;-63
2022/09/27 08:37:01;;;;;;;10.93;9.57;;;;;;;;;;6302325;28;20040;-63
2022/09/27 08:40:05;;;;;;;10.30;9.20;;;;;;;;;;6300226;28;20061;-62
2022/09/27 08:43:15;;;;;;;11.85;9.45;;;;;;;;;;6298227;28;20067;-62
2022/09/27 08:46:27;;;;;;;9.77;8.65;;;;;;;;;;6300399;28;20114;-63
2022/09/27 08:49:32;;;;;;;9.38;8.43;;;;;;;;;;6296222;28;20090;-62
2022/09/27 08:52:38;;;;;;;9.77;8.43;;;;;;;;;;6296443;28;20087;-62
2022/09/27 08:55:43;;;;;;;10.50;9.50;;;;;;;;;;6297534;28;20050;-62
2022/09/27 08:58:49;;;;;;;11.65;8.02;;;;;;;;;;6298532;28;20060;-62
2022/09/27 09:01:51;;;;;;;10.60;9.18;;;;;;;;;;6298086;28;20098;-62
2022/09/27 09:04:56;;;;;;;10.60;9.07;;;;;;;;;;6296579;28;20052;-62
2022/09/27 09:08:07;;;;;;;10.48;9.40;;;;;;;;;;6298001;28;20064;-62
2022/09/27 09:15:03;;;;;;;11.98;10.10;;;;;;;;;;6296922;28;20052;-62
2022/09/27 09:18:16;;;;;;;11.98;9.50;;;;;;;;;;6266659;28;20273;-62
2022/09/27 09:21:24;;;;;;;11.18;9.98;;;;;;;;;;6297582;28;20044;-62
2022/09/27 09:24:38;;;;;;;9.77;8.77;;;;;;;;;;6296339;28;20052;-64
2022/09/27 09:27:47;;;;;;;11.18;10.02;;;;;;;;;;6298758;28;20051;-62
2022/09/27 09:30:59;;;;;;;13.45;12.05;;;;;;;;;;6298971;28;20113;-62
2022/09/27 09:34:06;;;;;;;13.35;11.95;;;;;;;;;;6297794;28;20059;-63
2022/09/27 09:37:12;;;;;;;13.52;11.25;;;;;;;;;;6294875;28;20052;-62
2022/09/27 09:40:20;;;;;;;12.10;10.80;;;;;;;;;;6295471;28;20048;-62
2022/09/27 09:43:28;;;;;;;13.15;11.07;;;;;;;;;;6295281;28;20381;-62
2022/09/27 09:46:34;;;;;;;13.23;10.05;;;;;;;;;;6296781;28;20117;-62
2022/09/27 09:49:39;;;;;;;12.90;11.43;;;;;;;;;;6298194;28;20371;-62
2022/09/27 09:52:44;;;;;;;14.52;12.52;;;;;;;;;;6297771;28;20051;-62
2022/09/27 09:55:51;;;;;;;14.63;12.20;;;;;;;;;;6293474;28;20056;-62
2022/09/27 09:58:57;;;;;;;11.60;10.48;;;;;;;;;;6297666;28;20232;-63
2022/09/27 10:02:07;;;;;;;12.48;11.15;;;;;;;;;;6295726;28;20060;-64
2022/09/27 10:05:13;;;;;;;12.77;11.02;;;;;;;;;;6297087;28;20048;-62
2022/09/27 10:08:18;;;;;;;17.13;12.82;;;;;;;;;;6292709;28;20186;-62
2022/09/27 10:11:23;;;;;;;13.85;11.98;;;;;;;;;;6298270;28;20127;-62
2022/09/27 10:14:27;;;;;;;13.02;11.68;;;;;;;;;;6296504;28;20106;-62
2022/09/27 10:17:35;;;;;;;13.70;12.38;;;;;;;;;;6294444;28;20134;-62
2022/09/27 10:20:39;;;;;;;12.85;11.52;;;;;;;;;;6295274;28;20068;-63
2022/09/27 10:24:03;;;;;;;99.00;73.90;;;;;;;;;;6294281;28;20115;-63
2022/09/27 10:27:05;;;;;;;115.43;83.28;;;;;;;;;;6294886;28;20056;-64
2022/09/27 10:30:21;;;;;;;27.33;21.02;;;;;;;;;;6296842;28;20119;-66
2022/09/27 10:33:23;;;;;;;76.35;54.05;;;;;;;;;;6296930;28;20060;-65
2022/09/27 10:36:28;;;;;;;32.75;26.67;;;;;;;;;;6295384;28;20044;-64
2022/09/27 10:39:29;;;;;;;13.98;11.35;;;;;;;;;;6296885;28;20249;-62
2022/09/27 10:42:33;;;;;;;13.25;10.50;;;;;;;;;;6291735;28;20122;-62
2022/09/27 10:45:38;;;;;;;12.50;11.18;;;;;;;;;;6293979;28;20322;-62
2022/09/27 10:48:41;;;;;;;12.15;10.10;;;;;;;;;;6291423;28;20060;-64
2022/09/27 10:51:43;;;;;;;;;;;;;;;;;;6294310;28;20060;-62
2022/09/27 10:54:53;;;;;;;9.43;8.43;;;;;;;;;;6294711;28;19924;-62
2022/09/27 10:57:55;;;;;;;8.98;7.78;;;;;;;;;;6294333;28;20068;-62
2022/09/27 11:01:02;;;;;;;14.23;8.63;;;;;;;;;;6293600;28;20055;-62
2022/09/27 11:04:04;;;;;;;11.07;9.27;;;;;;;;;;6293215;28;20067;-63
2022/09/27 11:07:14;;;;;;;9.50;8.27;;;;;;;;;;6292822;28;20056;-62
2022/09/27 11:10:24;;;;;;;9.80;8.80;;;;;;;;;;6294939;28;20254;-61
2022/09/27 11:13:27;;;;;;;11.38;9.38;;;;;;;;;;6295101;28;20048;-63
2022/09/27 11:16:40;;;;;;;8.60;7.63;;;;;;;;;;6297101;28;20067;-63
2022/09/27 11:19:53;;;;;;;8.48;7.60;;;;;;;;;;6294859;28;20137;-63
2022/09/27 11:23:16;;;;;;;7.93;6.38;;;;;;;;;;6294013;28;20056;-63
2022/09/27 11:26:23;;;;;;;;;;;;;;;;;;6295969;28;20459;-63
2022/09/27 11:29:33;;;;;;;10.63;8.25;;;;;;;;;;6296146;28;19958;-63
2022/09/27 11:33:03;;;;;;;10.45;8.27;;;;;;;;;;6294835;28;20240;-63
2022/09/27 11:36:10;;;;;;;10.27;9.13;;;;;;;;;;6289707;28;20045;-63
2022/09/27 11:39:19;;;;;;;8.10;6.70;;;;;;;;;;6297301;28;20074;-63
2022/09/27 11:42:49;;;;;;;11.55;9.27;;;;;;;;;;6294133;28;20060;-63
2022/09/27 11:45:55;;;;;;;11.55;8.18;;;;;;;;;;6293702;28;20056;-63
2022/09/27 11:49:23;;;;;;;10.88;8.35;;;;;;;;;;6297343;28;20106;-63
2022/09/27 11:52:36;;;;;;;10.35;8.10;;;;;;;;;;6295228;28;20056;-63
2022/09/27 11:55:45;;;;;;;11.40;9.40;;;;;;;;;;6295322;28;20087;-63
2022/09/27 11:58:56;;;;;;;13.07;9.68;;;;;;;;;;6291803;28;20053;-63
2022/09/27 12:02:06;;;;;;;8.07;6.85;;;;;;;;;;6290659;28;20139;-63
2022/09/27 12:05:20;;;;;;;7.90;5.57;;;;;;;;;;6270400;28;20044;-61
2022/09/27 12:08:31;;;;;;;7.78;6.60;;;;;;;;;;6290916;28;20056;-62
2022/09/27 12:11:39;;;;;;;9.02;6.72;;;;;;;;;;6295564;28;20060;-62
2022/09/27 12:14:43;;;;;;;7.40;6.07;;;;;;;;;;6287613;28;20052;-63
2022/09/27 12:17:46;;;;;;;8.10;5.20;;;;;;;;;;6293968;28;20065;-63
2022/09/27 12:20:50;;;;;;;5.75;4.82;;;;;;;;;;6294885;28;20102;-63
2022/09/27 12:23:54;;;;;;;7.22;5.30;;;;;;;;;;6299301;28;20045;-62
2022/09/27 12:26:59;;;;;;;6.05;4.90;;;;;;;;;;6295747;28;20036;-62
2022/09/27 12:30:02;;;;;;;5.78;4.13;;;;;;;;;;6293848;28;20053;-63
2022/09/27 12:33:07;;;;;;;5.97;4.65;;;;;;;;;;6280740;28;20040;-63
2022/09/27 12:36:16;;;;;;;6.50;5.68;;;;;;;;;;6291980;28;20563;-63
2022/09/27 12:39:21;;;;;;;5.10;4.07;;;;;;;;;;6298143;28;20055;-63
2022/09/27 12:42:25;;;;;;;5.63;4.20;;;;;;;;;;6296066;28;20408;-63
2022/09/27 12:45:38;;;;;;;5.03;4.15;;;;;;;;;;6291668;28;20056;-63
2022/09/27 12:48:46;;;;;;;6.47;5.18;;;;;;;;;;6297431;28;20114;-63
2022/09/27 12:51:52;;;;;;;8.88;5.32;;;;;;;;;;6302740;28;20057;-63
2022/09/27 12:55:16;;;;;;;5.57;5.07;;;;;;;;;;6300499;28;20053;-63
2022/09/27 12:58:51;;;;;;;6.22;5.63;;;;;;;;;;6296969;28;20079;-63
2022/09/27 13:02:10;;;;;;;6.75;6.05;;;;;;;;;;6294200;28;20048;-63
2022/09/27 13:05:41;;;;;;;6.10;5.50;;;;;;;;;;6298248;28;20063;-62
2022/09/27 13:09:01;;;;;;;6.63;5.90;;;;;;;;;;6292862;28;20060;-63
2022/09/27 13:12:09;;;;;;;5.32;4.65;;;;;;;;;;6295304;28;20274;-63
2022/09/27 13:15:17;;;;;;;5.78;5.07;;;;;;;;;;6294491;28;20094;-63
2022/09/27 13:18:54;;;;;;;8.68;5.45;;;;;;;;;;6293389;28;20061;-63
2022/09/27 13:21:58;;;;;;;7.97;5.45;;;;;;;;;;6194064;28;20167;-63
2022/09/27 13:25:01;;;;;;;7.35;6.22;;;;;;;;;;6190879;28;20373;-63
2022/09/27 13:28:02;;;;;;;;;;;;;;;;;;6193395;28;20074;-63
2022/09/27 13:31:05;;;;;;;4.90;4.35;;;;;;;;;;6196468;28;19930;-63
2022/09/27 13:34:37;;;;;;;8.80;6.18;;;;;;;;;;6195789;28;20046;-63
2022/09/27 13:37:55;;;;;;;6.57;5.30;;;;;;;;;;6193974;28;20077;-63
2022/09/27 13:41:14;;;;;;;6.25;5.43;;;;;;;;;;6194594;28;20042;-63
2022/09/27 13:44:18;;;;;;;7.28;6.45;;;;;;;;;;6192408;28;20153;-63
2022/09/27 13:47:35;;;;;;;6.00;5.45;;;;;;;;;;6193355;28;20168;-64
2022/09/27 13:50:39;;;;;;;10.43;5.57;;;;;;;;;;6197723;28;20099;-63
2022/09/27 13:53:45;;;;;;;9.25;5.82;;;;;;;;;;6195740;28;20102;-63
2022/09/27 13:56:51;;;;;;;10.27;5.28;;;;;;;;;;6228308;28;20139;-63
2022/09/27 13:59:54;;;;;;;5.78;4.45;;;;;;;;;;6295467;28;20115;-64
2022/09/27 14:03:02;;;;;;;4.80;4.10;;;;;;;;;;6295660;28;20105;-63
2022/09/27 14:06:06;;;;;;;6.85;4.70;;;;;;;;;;6294671;28;20061;-62
2022/09/27 14:09:15;;;;;;;5.53;4.40;;;;;;;;;;6292996;28;20052;-62
2022/09/27 14:12:21;;;;;;;6.30;4.80;;;;;;;;;;6298261;28;20059;-63
2022/09/27 14:15:25;;;;;;;6.65;3.97;;;;;;;;;;6295305;28;20037;-63
2022/09/27 14:18:31;;;;;;;8.70;4.70;;;;;;;;;;6302176;28;20056;-63
2022/09/27 14:21:36;;;;;;;5.18;4.35;;;;;;;;;;6301004;28;20105;-63
2022/09/27 14:24:46;;;;;;;5.72;4.03;;;;;;;;;;6295515;28;20122;-62
2022/09/27 14:27:50;;;;;;;8.50;4.43;;;;;;;;;;6295437;28;20110;-64
2022/09/27 14:31:15;;;;;;;4.25;3.60;;;;;;;;;;6293469;28;20149;-65
2022/09/27 14:34:16;;;;;;;3.85;2.90;;;;;;;;;;6293728;28;20052;-64
2022/09/27 14:37:23;;;;;;;5.25;3.72;;;;;;;;;;6300145;28;20063;-63
2022/09/27 14:40:24;;;;;;;3.80;3.30;;;;;;;;;;6300601;28;20331;-63
2022/09/27 14:43:28;;;;;;;4.65;3.60;;;;;;;;;;6297314;28;20385;-62
2022/09/27 14:46:31;;;;;;;5.32;3.58;;;;;;;;;;6296779;28;20117;-63
2022/09/27 14:49:33;;;;;;;5.35;3.22;;;;;;;;;;6298837;28;20308;-63
2022/09/27 14:52:35;;;;;;;4.38;3.60;;;;;;;;;;6297325;28;20053;-63
2022/09/27 14:55:38;;;;;;;4.57;2.50;;;;;;;;;;6296508;28;20116;-63
2022/09/27 14:58:43;;;;;;;;;;;;;;;;;;6298765;28;20320;-64
2022/09/27 15:01:49;;;;;;;;;;;;;;;;;;6298889;28;20192;-63
2022/09/27 15:04:50;;;;;;;;;;;;;;;;;;6294827;28;19931;-63
2022/09/27 15:07:52;;;;;;;;;;;;;;;;;;6296954;28;19927;-63
2022/09/27 15:10:53;;;;;;;;;;;;;;;;;;6296439;28;19924;-63
2022/09/27 15:13:57;;;;;;;;;;;;;;;;;;6295937;28;20136;-63
2022/09/27 15:17:04;;;;;;;;;;;;;;;;;;6295076;28;20104;-63
2022/09/27 15:20:18;;;;;;;;;;;;;;;;;;6293320;28;19917;-64
2022/09/27 15:23:25;;;;;;;;;;;;;;;;;;6293354;28;19962;-63
2022/09/27 15:26:28;;;;;;;;;;;;;;;;;;6292161;28;19925;-62
2022/09/27 15:29:31;;;;;;;;;;;;;;;;;;6295335;28;19924;-62
2022/09/27 15:32:33;;;;;;;;;;;;;;;;;;6293875;28;19931;-62
2022/09/27 15:35:34;;;;;;;;;;;;;;;;;;6293807;28;19936;-62
2022/09/27 15:38:38;;;;;;;;;;;;;;;;;;6294257;28;19924;-62
2022/09/27 15:42:00;;;;;;;;;;;;;;;;;;6293475;28;19935;-63
2022/09/27 15:45:08;;;;;;;;;;;;;;;;;;6294234;28;20176;-63
2022/09/27 15:48:11;;;;;;;;;;;;;;;;;;6294991;28;19916;-63
2022/09/27 15:51:27;;;;;;;;;;;;;;;;;;6292964;28;19924;-63
2022/09/27 15:54:29;;;;;;;;;;;;;;;;;;6295947;28;19919;-63
2022/09/27 15:57:32;;;;;;;;;;;;;;;;;;6293129;28;19925;-63
2022/09/27 16:00:37;;;;;;;;;;;;;;;;;;6291062;28;19928;-61
2022/09/27 16:03:39;;;;;;;;;;;;;;;;;;6294203;28;19924;-61
2022/09/27 16:06:43;;;;;;;;;;;;;;;;;;6293362;28;19924;-63
2022/09/27 16:09:45;;;;;;;;;;;;;;;;;;6294633;28;19917;-63
2022/09/27 16:12:47;;;;;;;;;;;;;;;;;;6295231;28;19916;-64
2022/09/27 16:15:50;;;;;;;;;;;;;;;;;;6299332;28;19916;-64
2022/09/27 16:18:52;;;;;;;;;;;;;;;;;;6292941;28;19936;-63
2022/09/27 16:21:54;;;;;;;;;;;;;;;;;;6295351;28;19928;-63
2022/09/27 16:24:57;;;;;;;;;;;;;;;;;;6299233;28;20111;-63
2022/09/27 16:27:58;;;;;;;;;;;;;;;;;;6301528;28;19943;-63
2022/09/27 16:31:03;;;;;;;;;;;;;;;;;;6300329;28;19920;-63
2022/09/27 16:34:04;;;;;;;;;;;;;;;;;;6302505;28;19959;-64
2022/09/27 16:37:06;;;;;;;;;;;;;;;;;;6298625;28;19917;-63
2022/09/27 16:40:08;;;;;;;;;;;;;;;;;;6296479;28;20073;-63
2022/09/27 16:43:10;;;;;;;;;;;;;;;;;;6295419;28;19932;-63
2022/09/27 16:46:17;;;;;;;;;;;;;;;;;;6299985;28;20250;-62
2022/09/27 16:52:37;;;;;;;;;;;;;;;;;;6296821;28;19958;-61
2022/09/27 16:55:39;;;;;;;;;;;;;;;;;;6295581;28;19966;-61
2022/09/27 16:58:40;;;;;;;;;;;;;;;;;;6296198;28;20135;-61
2022/09/27 17:01:43;;;;;;;;;;;;;;;;;;6296347;28;19916;-62
2022/09/27 17:04:44;;;;;;;;;;;;;;;;;;6299901;28;20238;-63
2022/09/27 17:07:49;;;;;;;;;;;;;;;;;;6298906;28;19924;-62
2022/09/27 17:10:50;;;;;;;;;;;;;;;;;;6297201;28;19932;-63
2022/09/27 17:13:55;;;;;;;;;;;;;;;;;;6299908;28;20156;-62
2022/09/27 17:16:58;;;;;;;;;;;;;;;;;;6295503;28;20014;-62
2022/09/27 17:19:59;;;;;;;;;;;;;;;;;;6296898;28;20277;-63
2022/09/27 17:23:01;;;;;;;;;;;;;;;;;;6299126;28;20224;-62
2022/09/27 17:26:06;;;;;;;;;;;;;;;;;;6301460;28;19954;-63
2022/09/27 17:29:08;;;;;;;;;;;;;;;;;;6297917;28;19924;-62
2022/09/27 17:32:11;;;;;;;;;;;;;;;;;;6297750;28;19932;-62
2022/09/27 17:35:13;;;;;;;;;;;;;;;;;;6298502;28;20318;-62
2022/09/27 17:38:14;;;;;;;;;;;;;;;;;;6299809;28;19928;-62
2022/09/27 17:41:17;;;;;;;;;;;;;;;;;;6298330;28;19946;-62
2022/09/27 17:44:18;;;;;;;;;;;;;;;;;;6295280;28;19947;-62
2022/09/27 17:50:40;;;;;;;;;;;;;;;;;;6299440;28;19983;-66
2022/09/27 17:53:41;;;;;;;;;;;;;;;;;;6295625;28;20010;-62
2022/09/27 17:56:43;;;;;;;;;;;;;;;;;;6293512;28;19947;-62
2022/09/27 17:59:45;;;;;;;;;;;;;;;;;;6295174;28;19920;-62
2022/09/27 18:02:47;;;;;;;;;;;;;;;;;;6297523;28;20138;-61
2022/09/27 18:05:49;;;;;;;;;;;;;;;;;;6296786;28;19916;-61
2022/09/27 18:08:50;;;;;;;;;;;;;;;;;;6294951;28;20196;-61
2022/09/27 18:11:54;;;;;;;;;;;;;;;;;;6297619;28;19957;-65
2022/09/27 18:14:58;;;;;;;;;;;;;;;;;;6298587;28;19924;-61
2022/09/27 18:18:04;;;;;;;;;;;;;;;;;;6301657;28;19921;-62
2022/09/27 18:21:06;;;;;;;;;;;;;;;;;;6299098;28;19986;-61
2022/09/27 18:24:08;;;;;;;;;;;;;;;;;;6297733;28;19963;-62
2022/09/27 18:27:14;;;;;;;;;;;;;;;;;;6301271;28;19916;-61
2022/09/27 18:30:18;;;;;;;;;;;;;;;;;;6299375;28;19928;-61
2022/09/27 18:33:23;;;;;;;;;;;;;;;;;;6294875;28;20025;-64
2022/09/27 18:36:25;;;;;;;;;;;;;;;;;;6298300;28;19916;-66
2022/09/27 18:39:26;;;;;;;;;;;;;;;;;;6297665;28;19928;-66
2022/09/27 18:42:30;;;;;;;;;;;;;;;;;;6295742;28;19948;-65
2022/09/27 18:45:37;;;;;;;;;;;;;;;;;;6296434;28;19924;-65
2022/09/27 18:48:40;;;;;;;;;;;;;;;;;;6298148;28;20038;-63
2022/09/27 18:51:45;;;;;;;;;;;;;;;;;;6299106;28;19935;-63
2022/09/27 18:54:48;;;;;;;;;;;;;;;;;;6298646;28;19928;-63
2022/09/27 18:57:50;;;;;;;;;;;;;;;;;;6300920;28;19924;-63
2022/09/27 19:00:53;;;;;;;;;;;;;;;;;;6295728;28;19916;-63